Altus, OK

1:37 AM CDT on October 01, 2016 (GMT -0500)
Altus Municipal | | Change Station

Elev 1434 ft 34.70 °N, 99.34 °W | Updated 22 minutes ago

Clear
Clear
62 °F
Feels Like 62 °F
N
4
Wind Variable Wind from ESE

Today
High -- | Low -- °F
--% Chance of Precip.
Yesterday
High -- | Low -- °F
Precip. -- in
Pressure 30.13 in
Visibility 10.0 miles
Clouds Clear
Dew Point 53 °F
Humidity 74%
Rainfall 0.00 in
Snow Depth Not available.
7:32 AM 7:20 PM
New Moon, 0% visible
METAR KAXS 010615Z AUTO 12003KT 10SM CLR 17/12 A3013 RMK AO2 T01650118
Pressure 30.13 in
Visibility 10.0 miles
Clouds Clear
Dew Point 53 °F
Humidity 74%
Rainfall 0.00 in
Snow Depth Not available.
7:32 AM 7:20 PM
New Moon, 0% visible
METAR KAXS 010615Z AUTO 12003KT 10SM CLR 17/12 A3013 RMK AO2 T01650118

10-Day Weather Forecast

Almanac

Astronomy

Oct. 01, 2016 Rise Set
Actual Time
Civil Twilight
Nautical Twilight
Astronomical Twilight
Moon
Length of Visible Light
Length of Day
Tomorrow will be .
, % of the Moon is Illuminated

Today's Extremes

State Highs State Lows

Community

WunderPhotos

Upload Photos

1,942,898 photos uploaded!

WunderBlog® & News

Nearby

Air Quality

  Air Quality AQ Index Pollutant
Not available.

Snow Depth

Station Depth Elevation

Earthquake Activity

City Distance Mag. Time & Date
Minimum magnitude displayed is 2.5.

Coastal Water Temperatures

Place Temperature

Stations

Nearby Weather Stations

Station Location Temp. Windchill Dew Point Humidity Wind Precip. Elev Updated Type
                   

Watches & Warnings

There are currently no watches in effect.